Metar Cercanos

 

LEPA - Palma De Mallorc, Spain
Distance from station: ONO 38km
Actualización: Sun, 14-Apr-2024 1:00am CEST
Despejado
Despejado
 Viento del E
Viento: E 2 km/h
Temperatura: 11°C
Rocío: 7°C
Humedad: 77%
Barómetro: 1026 hPa
Resumen: Despejado
Visibility: greater than 10 km
2024/04/13 23:00 LEPA 132300Z 10001KT CAVOK 11/07 Q1026 NOSIG
LEMH - Mahon/Menorca Is, Spain
Distance from station: ENE 105km
Actualización: Sun, 14-Apr-2024 1:00am CEST
Despejado
Despejado
 Viento del N
Viento: N 11 km/h
Temperatura: 15°C
Rocío: 7°C
Humedad: 59%
Barómetro: 1026 hPa
Resumen: Despejado
Visibility: greater than 10 km
2024/04/13 23:00 LEMH 132300Z AUTO 35006KT CAVOK 15/07 Q1026
 
LEIB - Ibiza/Es Codola, Spain
Distance from station: OSO 165km
Actualización: Sun, 14-Apr-2024 1:00am CEST
Despejado
Despejado
 Viento del NNO
Viento: NNO 6 km/h
Temperatura: 14°C
Rocío: 5°C
Humedad: 55%
Barómetro: 1026 hPa
Resumen: Despejado
Visibility: greater than 10 km
2024/04/13 23:00 LEIB 132300Z 34003KT CAVOK 14/05 Q1026 NOSIG
LEBL - Barcelona Airpor, Spain
Distance from station: NNO 225km
Actualización: Sun, 14-Apr-2024 1:00am CEST
Despejado
Despejado
 Viento del varies
Viento: varies 2 km/h
Temperatura: 15°C
Rocío: 9°C
Humedad: 68%
Barómetro: 1026 hPa
Resumen: Despejado
Visibility: greater than 10 km
2024/04/13 23:00 LEBL 132300Z VRB01KT CAVOK 15/09 Q1026 NOSIG
 
LEVC - Valencia (civ/Mi, Spain
Distance from station: NO 188km
Actualización: Sun, 14-Apr-2024 1:00am CEST
Despejado
Despejado
 Viento del O
Viento: O 6 km/h
Temperatura: 15°C
Rocío: 4°C
Humedad: 48%
Barómetro: 1026 hPa
Resumen: Despejado
Visibility: greater than 10 km
2024/04/13 23:00 LEVC 132300Z 27003KT CAVOK 15/04 Q1026 NOSIG
LEGE - Gerona/Costa Bra, Spain
Distance from station: N 276km
Actualización: Sun, 14-Apr-2024 1:00am CEST
Despejado
Despejado
 Viento del calm
Viento: Calma
Temperatura: 12°C
Rocío: 7°C
Humedad: 72%
Barómetro: 1026 hPa
Resumen: Despejado
Visibility: greater than 10 km
2024/04/13 23:00 LEGE 132300Z 00000KT CAVOK 12/07 Q1026
 
LEAL - Alicante/El Alte, Spain
Distance from station: OSO 344km
Actualización: Sun, 14-Apr-2024 1:00am CEST
Despejado
Despejado
 Viento del NO
Viento: NO 11 km/h
Temperatura: 16°C
Rocío: 6°C
Humedad: 52%
Barómetro: 1026 hPa
Resumen: Despejado
Visibility: greater than 10 km
2024/04/13 23:00 LEAL 132300Z 31006KT 290V350 CAVOK 16/06 Q1026 NOSIG
LEAM - Almeria Airport, Spain
Distance from station: SSO 56km
Actualización: Sun, 14-Apr-2024 1:00am CEST
Despejado
Despejado
 Viento del NNO
Viento: NNO 17 km/h
Temperatura: 17°C
Rocío: 7°C
Humedad: 52%
Barómetro: 1025 hPa
Resumen: Despejado
Visibility: greater than 10 km
2024/04/13 23:00 LEAM 132300Z AUTO 33009KT CAVOK 17/07 Q1025
 
LEZG - Zaragoza (mil/Ci, Spain
Distance from station: NO 431km
Actualización: Sun, 14-Apr-2024 1:00am CEST
Despejado
Despejado
 Viento del ESE
Viento: ESE 2 km/h
Temperatura: 17°C
Rocío: 6°C
Humedad: 49%
Barómetro: 1025 hPa
Resumen: Despejado
Visibility: greater than 10 km
2024/04/13 23:00 LEZG 132300Z 12001KT CAVOK 17/06 Q1025
LEMD - Madrid/Barajas, Spain
Distance from station: ONO 234km
Actualización: Sun, 14-Apr-2024 1:00am CEST
Despejado
Despejado
 Viento del varies
Viento: varies 4 km/h
Temperatura: 15°C
Rocío: 7°C
Humedad: 59%
Barómetro: 1026 hPa
Resumen: Despejado
Visibility: greater than 10 km
2024/04/13 23:00 LEMD 132300Z VRB02KT CAVOK 15/07 Q1026 NOSIG
 
LEGR - Granada Airport, Spain
Distance from station: OSO 62km
Actualización: Sun, 14-Apr-2024 1:00am CEST
Despejado
Despejado
 Viento del varies
Viento: varies 2 km/h
Temperatura: 13°C
Rocío: 8°C
Humedad: 72%
Barómetro: 1026 hPa
Resumen: Despejado
Visibility: greater than 10 km
2024/04/13 23:00 LEGR 132300Z AUTO VRB01KT CAVOK 13/08 Q1026
LEMG - Malaga (civ/Mil), Spain
Distance from station: OSO 227km
Actualización: Sun, 14-Apr-2024 1:00am CEST
Despejado
Despejado
 Viento del ONO
Viento: ONO 4 km/h
Temperatura: 14°C
Rocío: 7°C
Humedad: 63%
Barómetro: 1026 hPa
Resumen: Despejado
Visibility: greater than 10 km
2024/04/13 23:00 LEMG 132300Z 29002KT CAVOK 14/07 Q1026 NOSIG
 
LEZL - Sevilla (civ/Mil, Spain
Distance from station: S 318km
Actualización: Sun, 14-Apr-2024 1:00am CEST
Despejado
Despejado
 Viento del NO
Viento: NO 6 km/h
Temperatura: 17°C
Rocío: 11°C
Humedad: 68%
Barómetro: 1023 hPa
Resumen: Despejado
Visibility: greater than 10 km
2024/04/13 23:00 LEZL 132300Z 31003KT 260V340 CAVOK 17/11 Q1023 NOSIG
LEVT - Vitoria, Spain
Distance from station: NO 226km
Actualización: Sun, 14-Apr-2024 1:00am CEST
Despejado
Despejado
 Viento del varies
Viento: varies 4 km/h
Temperatura: 10°C
Rocío: 7°C
Humedad: 82%
Barómetro: 1028 hPa
Resumen: Despejado
Visibility: greater than 10 km
2024/04/13 23:00 LEVT 132300Z VRB02KT CAVOK 10/07 Q1028
 
LEBB - Bilbao/Sondica, Spain
Distance from station: NNO 235km
Actualización: Sun, 14-Apr-2024 1:00am CEST
Despejado
Despejado
 Viento del E
Viento: E 7 km/h
Temperatura: 14°C
Rocío: 11°C
Humedad: 82%
Barómetro: 1027 hPa
Resumen: Despejado
Visibility: greater than 10 km
2024/04/13 23:00 LEBB 132300Z 09004KT CAVOK 14/11 Q1027 NOSIG
LESO - San Sebastian/Fu, Spain
Distance from station: N 231km
Actualización: Sun, 14-Apr-2024 1:00am CEST
Despejado
Despejado
 Viento del S
Viento: S 6 km/h
Temperatura: 15°C
Rocío: 12°C
Humedad: 82%
Barómetro: 1027 hPa
Resumen: Despejado
Visibility: greater than 10 km
2024/04/13 23:00 LESO 132300Z AUTO 18003KT 150V210 CAVOK 15/12 Q1027
 
LEVD - Valladolid(Mil/C, Spain
Distance from station: ONO 239km
Actualización: Sun, 14-Apr-2024 1:00am CEST
Despejado
Despejado
 Viento del N
Viento: N 7 km/h
Temperatura: 13°C
Rocío: 9°C
Humedad: 77%
Barómetro: 1027 hPa
Resumen: Despejado
Visibility: greater than 10 km
2024/04/13 23:00 LEVD 132300Z AUTO 01004KT CAVOK 13/09 Q1027
LESA - Salamanca (civ/M, Spain
Distance from station: ONO 349km
Actualización: Sun, 14-Apr-2024 1:00am CEST
Despejado
Despejado
 Viento del varies
Viento: varies 2 km/h
Temperatura: 13°C
Rocío: 11°C
Humedad: 88%
Barómetro: 1028 hPa
Resumen: Despejado
Visibility: greater than 10 km
2024/04/13 23:00 LESA 132300Z AUTO VRB01KT CAVOK 13/11 Q1028
 
LEXJ - Santander/Paraya, Spain
Distance from station: NNO 247km
Actualización: Sun, 14-Apr-2024 1:00am CEST
Patches of fog, Few clouds
Patches of fog, Few clouds
 Viento del SSO
Viento: SSO 2 km/h
Temperatura: 14°C
Rocío: 12°C
Humedad: 88%
Barómetro: 1027 hPa
Resumen: Patches of Fog
Clouds: Few Clouds
Visibility: 10 km
Cloud details: Few Clouds 61 m
2024/04/13 23:00 LEXJ 132300Z 21001KT 9999 BCFG FEW002 14/12 Q1027
LEAS - Asturias/Aviles, Spain
Distance from station: NO 214km
Actualización: Sun, 14-Apr-2024 1:00am CEST
Despejado
Despejado
 Viento del S
Viento: S 4 km/h
Temperatura: 16°C
Rocío: 12°C
Humedad: 77%
Barómetro: 1026 hPa
Resumen: Despejado
Visibility: greater than 10 km
2024/04/13 23:00 LEAS 132300Z AUTO 19002KT CAVOK 16/12 Q1026
 
LECO - La Coruna/Alvedr, Spain
Distance from station: ONO 222km
Actualización: Sun, 14-Apr-2024 1:00am CEST
Despejado
Despejado
 Viento del varies
Viento: varies 4 km/h
Temperatura: 14°C
Rocío: 12°C
Humedad: 88%
Barómetro: 1026 hPa
Resumen: Despejado
Visibility: greater than 10 km
2024/04/13 23:00 LECO 132300Z VRB02KT CAVOK 14/12 Q1026 NOSIG
LEVX - Vigo/Peinador, Spain
Distance from station: O 214km
Actualización: Sun, 14-Apr-2024 1:00am CEST
Despejado
Despejado
 Viento del NNE
Viento: NNE 6 km/h
Temperatura: 18°C
Rocío: 13°C
Humedad: 73%
Barómetro: 1026 hPa
Resumen: Despejado
Visibility: greater than 10 km
2024/04/13 23:00 LEVX 132300Z 02003KT CAVOK 18/13 Q1026 NOSIG